BLB weather

Leo Airport
Guaymas, Sonora, Mexico

Public forecast

Using degrees Celsius for public forecast. Weather courtesy of forecast.io.

METAR (pilot weather report)

Closest report is General José María Yáñez International Airport, 6.1 nm (11.4 km) E. Retrieved 2019/05/20 17:40 UTC (16 minutes ago):

MMGM 201740Z 30011KT 10SM SCT170 26/15 A2979 RMK 8/010 HZY

TAF (pilot weather forecast)

Forecast is more than 6 hours old.

Closest forecast is General José María Yáñez International Airport, 6.1 nm (11.4 km) E. Retrieved 2019/05/20 06:08 UTC (12 hours ago):

TAF MMGM 200401Z 2006/2106 23005KT P6SM SCT200 FM201800 25010KT P6SM BKN200 FM210300 24005KT P6SM BKN200